sensor_id;sensor_type;location;lat;lon;timestamp;temperature;humidity
4727;DHT22;2377;51.734;8.950;2023-03-14T00:02:12;10.30;4.00
4727;DHT22;2377;51.734;8.950;2023-03-14T00:04:40;10.30;1.00
4727;DHT22;2377;51.734;8.950;2023-03-14T00:07:07;10.30;1.00
4727;DHT22;2377;51.734;8.950;2023-03-14T00:09:37;10.30;1.00
4727;DHT22;2377;51.734;8.950;2023-03-14T00:12:04;10.30;1.00
4727;DHT22;2377;51.734;8.950;2023-03-14T00:14:33;10.30;1.00
4727;DHT22;2377;51.734;8.950;2023-03-14T00:17:00;10.20;1.00
4727;DHT22;2377;51.734;8.950;2023-03-14T00:19:27;10.30;1.00
4727;DHT22;2377;51.734;8.950;2023-03-14T00:21:55;10.20;1.00
4727;DHT22;2377;51.734;8.950;2023-03-14T00:24:22;10.20;1.00
4727;DHT22;2377;51.734;8.950;2023-03-14T00:26:49;10.30;1.00
4727;DHT22;2377;51.734;8.950;2023-03-14T00:29:16;10.30;1.00
4727;DHT22;2377;51.734;8.950;2023-03-14T00:31:43;10.30;1.00
4727;DHT22;2377;51.734;8.950;2023-03-14T00:34:10;10.30;1.00
4727;DHT22;2377;51.734;8.950;2023-03-14T00:36:37;10.30;1.00
4727;DHT22;2377;51.734;8.950;2023-03-14T00:39:06;10.30;1.00
4727;DHT22;2377;51.734;8.950;2023-03-14T00:41:33;10.30;1.00
4727;DHT22;2377;51.734;8.950;2023-03-14T00:44:00;10.30;1.00
4727;DHT22;2377;51.734;8.950;2023-03-14T00:46:30;10.30;1.00
4727;DHT22;2377;51.734;8.950;2023-03-14T00:48:57;10.30;1.00
4727;DHT22;2377;51.734;8.950;2023-03-14T00:51:24;10.30;1.00
4727;DHT22;2377;51.734;8.950;2023-03-14T00:53:51;10.30;1.00
4727;DHT22;2377;51.734;8.950;2023-03-14T00:56:19;10.30;1.00
4727;DHT22;2377;51.734;8.950;2023-03-14T00:58:46;10.30;1.00
4727;DHT22;2377;51.734;8.950;2023-03-14T01:01:15;10.30;1.00
4727;DHT22;2377;51.734;8.950;2023-03-14T01:03:44;10.30;1.00
4727;DHT22;2377;51.734;8.950;2023-03-14T01:06:13;10.20;1.00
4727;DHT22;2377;51.734;8.950;2023-03-14T01:08:41;10.20;1.00
4727;DHT22;2377;51.734;8.950;2023-03-14T01:11:10;10.10;1.00
4727;DHT22;2377;51.734;8.950;2023-03-14T01:13:40;10.20;1.00
4727;DHT22;2377;51.734;8.950;2023-03-14T01:16:09;10.10;1.00
4727;DHT22;2377;51.734;8.950;2023-03-14T01:18:38;10.20;1.00
4727;DHT22;2377;51.734;8.950;2023-03-14T01:21:11;10.20;1.00
4727;DHT22;2377;51.734;8.950;2023-03-14T01:23:40;10.30;1.00
4727;DHT22;2377;51.734;8.950;2023-03-14T01:26:09;10.30;1.00
4727;DHT22;2377;51.734;8.950;2023-03-14T01:28:36;10.30;1.00
4727;DHT22;2377;51.734;8.950;2023-03-14T01:31:06;10.30;1.00
4727;DHT22;2377;51.734;8.950;2023-03-14T01:33:35;10.30;1.00
4727;DHT22;2377;51.734;8.950;2023-03-14T01:36:04;10.30;1.00
4727;DHT22;2377;51.734;8.950;2023-03-14T01:38:33;10.30;1.00
4727;DHT22;2377;51.734;8.950;2023-03-14T01:41:02;10.30;1.00
4727;DHT22;2377;51.734;8.950;2023-03-14T01:43:32;10.30;1.00
4727;DHT22;2377;51.734;8.950;2023-03-14T01:46:23;10.30;1.00
4727;DHT22;2377;51.734;8.950;2023-03-14T01:48:59;10.30;1.00
4727;DHT22;2377;51.734;8.950;2023-03-14T01:51:33;10.40;1.00
4727;DHT22;2377;51.734;8.950;2023-03-14T01:54:09;10.30;1.00
4727;DHT22;2377;51.734;8.950;2023-03-14T01:56:42;10.30;1.00
4727;DHT22;2377;51.734;8.950;2023-03-14T01:59:14;10.30;1.00
4727;DHT22;2377;51.734;8.950;2023-03-14T02:01:44;10.40;1.00
4727;DHT22;2377;51.734;8.950;2023-03-14T02:04:14;10.40;1.00
4727;DHT22;2377;51.734;8.950;2023-03-14T02:06:51;10.40;1.00
4727;DHT22;2377;51.734;8.950;2023-03-14T02:09:22;10.50;1.00
4727;DHT22;2377;51.734;8.950;2023-03-14T02:11:50;10.40;1.00
4727;DHT22;2377;51.734;8.950;2023-03-14T02:14:25;10.40;1.00
4727;DHT22;2377;51.734;8.950;2023-03-14T02:16:58;10.40;1.00
4727;DHT22;2377;51.734;8.950;2023-03-14T02:19:35;10.40;1.00
4727;DHT22;2377;51.734;8.950;2023-03-14T02:22:21;10.40;1.00
4727;DHT22;2377;51.734;8.950;2023-03-14T02:24:56;10.40;1.00
4727;DHT22;2377;51.734;8.950;2023-03-14T02:27:30;10.40;1.00
4727;DHT22;2377;51.734;8.950;2023-03-14T02:30:00;10.30;1.00
4727;DHT22;2377;51.734;8.950;2023-03-14T02:32:33;10.30;1.00
4727;DHT22;2377;51.734;8.950;2023-03-14T02:35:06;10.30;1.00
4727;DHT22;2377;51.734;8.950;2023-03-14T02:37:41;10.30;1.00
4727;DHT22;2377;51.734;8.950;2023-03-14T02:40:12;10.30;1.00
4727;DHT22;2377;51.734;8.950;2023-03-14T02:42:40;10.40;1.00
4727;DHT22;2377;51.734;8.950;2023-03-14T02:45:34;10.40;1.00
4727;DHT22;2377;51.734;8.950;2023-03-14T02:48:09;10.30;1.00
4727;DHT22;2377;51.734;8.950;2023-03-14T02:50:41;10.40;1.00
4727;DHT22;2377;51.734;8.950;2023-03-14T02:53:08;10.30;1.00
4727;DHT22;2377;51.734;8.950;2023-03-14T02:55:35;10.40;1.00
4727;DHT22;2377;51.734;8.950;2023-03-14T02:58:04;10.40;1.00
4727;DHT22;2377;51.734;8.950;2023-03-14T03:00:31;10.40;1.00
4727;DHT22;2377;51.734;8.950;2023-03-14T03:02:58;10.40;1.00
4727;DHT22;2377;51.734;8.950;2023-03-14T03:05:26;10.40;1.00
4727;DHT22;2377;51.734;8.950;2023-03-14T03:07:53;10.40;1.00
4727;DHT22;2377;51.734;8.950;2023-03-14T03:10:22;10.30;1.00
4727;DHT22;2377;51.734;8.950;2023-03-14T03:12:49;10.30;1.00
4727;DHT22;2377;51.734;8.950;2023-03-14T03:15:18;10.10;1.00
4727;DHT22;2377;51.734;8.950;2023-03-14T03:17:45;10.00;5.50
4727;DHT22;2377;51.734;8.950;2023-03-14T03:20:12;9.70;27.20
4727;DHT22;2377;51.734;8.950;2023-03-14T03:22:39;9.50;26.90
4727;DHT22;2377;51.734;8.950;2023-03-14T03:25:08;9.40;66.10
4727;DHT22;2377;51.734;8.950;2023-03-14T03:27:37;9.20;93.40
4727;DHT22;2377;51.734;8.950;2023-03-14T03:30:06;9.10;99.90
4727;DHT22;2377;51.734;8.950;2023-03-14T03:32:35;9.00;99.90
4727;DHT22;2377;51.734;8.950;2023-03-14T03:35:03;9.00;99.90
4727;DHT22;2377;51.734;8.950;2023-03-14T03:37:32;9.00;94.30
4727;DHT22;2377;51.734;8.950;2023-03-14T03:39:59;9.00;99.00
4727;DHT22;2377;51.734;8.950;2023-03-14T03:42:29;9.00;83.70
4727;DHT22;2377;51.734;8.950;2023-03-14T03:44:56;9.00;80.00
4727;DHT22;2377;51.734;8.950;2023-03-14T03:47:23;8.90;69.60
4727;DHT22;2377;51.734;8.950;2023-03-14T03:49:51;8.90;79.60
4727;DHT22;2377;51.734;8.950;2023-03-14T03:52:18;9.00;70.80
4727;DHT22;2377;51.734;8.950;2023-03-14T03:54:46;8.90;77.00
4727;DHT22;2377;51.734;8.950;2023-03-14T03:57:13;8.90;78.10
4727;DHT22;2377;51.734;8.950;2023-03-14T03:59:40;8.90;72.20
4727;DHT22;2377;51.734;8.950;2023-03-14T04:02:07;8.90;54.40
4727;DHT22;2377;51.734;8.950;2023-03-14T04:04:34;8.90;59.80
4727;DHT22;2377;51.734;8.950;2023-03-14T04:07:03;9.00;71.50
4727;DHT22;2377;51.734;8.950;2023-03-14T04:09:30;9.00;73.20
4727;DHT22;2377;51.734;8.950;2023-03-14T04:11:57;8.90;64.50
4727;DHT22;2377;51.734;8.950;2023-03-14T04:14:24;9.00;66.90
4727;DHT22;2377;51.734;8.950;2023-03-14T04:16:51;9.00;70.00
4727;DHT22;2377;51.734;8.950;2023-03-14T04:19:18;8.90;72.30
4727;DHT22;2377;51.734;8.950;2023-03-14T04:21:46;8.80;88.60
4727;DHT22;2377;51.734;8.950;2023-03-14T04:24:18;8.80;89.90
4727;DHT22;2377;51.734;8.950;2023-03-14T04:26:45;8.80;99.40
4727;DHT22;2377;51.734;8.950;2023-03-14T04:29:12;8.80;99.30
4727;DHT22;2377;51.734;8.950;2023-03-14T04:31:39;8.80;99.90
4727;DHT22;2377;51.734;8.950;2023-03-14T04:34:06;8.80;99.90
4727;DHT22;2377;51.734;8.950;2023-03-14T04:36:33;8.80;99.90
4727;DHT22;2377;51.734;8.950;2023-03-14T04:39:00;8.80;99.90
4727;DHT22;2377;51.734;8.950;2023-03-14T04:41:30;8.80;99.90
4727;DHT22;2377;51.734;8.950;2023-03-14T04:43:58;8.80;99.90
4727;DHT22;2377;51.734;8.950;2023-03-14T04:46:26;8.80;99.90
4727;DHT22;2377;51.734;8.950;2023-03-14T04:48:53;8.80;99.90
4727;DHT22;2377;51.734;8.950;2023-03-14T04:51:21;8.80;99.90
4727;DHT22;2377;51.734;8.950;2023-03-14T04:53:52;8.80;99.90
4727;DHT22;2377;51.734;8.950;2023-03-14T04:56:20;8.80;99.90
4727;DHT22;2377;51.734;8.950;2023-03-14T04:58:49;8.80;99.90
4727;DHT22;2377;51.734;8.950;2023-03-14T05:01:16;8.80;99.90
4727;DHT22;2377;51.734;8.950;2023-03-14T05:03:43;8.80;99.90
4727;DHT22;2377;51.734;8.950;2023-03-14T05:06:10;8.80;99.90
4727;DHT22;2377;51.734;8.950;2023-03-14T05:08:37;8.80;99.90
4727;DHT22;2377;51.734;8.950;2023-03-14T05:11:05;8.70;99.90
4727;DHT22;2377;51.734;8.950;2023-03-14T05:13:32;8.70;99.90
4727;DHT22;2377;51.734;8.950;2023-03-14T05:16:09;8.70;99.90
4727;DHT22;2377;51.734;8.950;2023-03-14T05:18:37;8.80;99.90
4727;DHT22;2377;51.734;8.950;2023-03-14T05:21:05;8.70;99.90
4727;DHT22;2377;51.734;8.950;2023-03-14T05:23:32;8.70;99.90
4727;DHT22;2377;51.734;8.950;2023-03-14T05:25:59;8.80;99.90
4727;DHT22;2377;51.734;8.950;2023-03-14T05:28:26;8.80;99.90
4727;DHT22;2377;51.734;8.950;2023-03-14T05:30:53;8.80;99.90
4727;DHT22;2377;51.734;8.950;2023-03-14T05:33:22;8.80;99.90
4727;DHT22;2377;51.734;8.950;2023-03-14T05:35:49;8.80;99.90
4727;DHT22;2377;51.734;8.950;2023-03-14T05:38:16;8.80;99.90
4727;DHT22;2377;51.734;8.950;2023-03-14T05:40:44;8.80;99.90
4727;DHT22;2377;51.734;8.950;2023-03-14T05:43:12;8.80;99.90
4727;DHT22;2377;51.734;8.950;2023-03-14T05:45:40;8.80;99.90
4727;DHT22;2377;51.734;8.950;2023-03-14T05:48:08;8.80;99.90
4727;DHT22;2377;51.734;8.950;2023-03-14T05:50:37;8.80;99.90
4727;DHT22;2377;51.734;8.950;2023-03-14T05:53:04;8.80;99.90
4727;DHT22;2377;51.734;8.950;2023-03-14T05:55:31;8.80;99.90
4727;DHT22;2377;51.734;8.950;2023-03-14T05:57:58;8.90;99.90
4727;DHT22;2377;51.734;8.950;2023-03-14T06:00:25;8.80;99.90
4727;DHT22;2377;51.734;8.950;2023-03-14T06:02:53;8.80;99.90
4727;DHT22;2377;51.734;8.950;2023-03-14T06:05:20;8.80;99.90
4727;DHT22;2377;51.734;8.950;2023-03-14T06:07:48;8.80;99.90
4727;DHT22;2377;51.734;8.950;2023-03-14T06:10:15;8.80;99.90
4727;DHT22;2377;51.734;8.950;2023-03-14T06:12:43;8.80;99.90
4727;DHT22;2377;51.734;8.950;2023-03-14T06:15:10;8.80;99.90
4727;DHT22;2377;51.734;8.950;2023-03-14T06:17:38;8.80;99.90
4727;DHT22;2377;51.734;8.950;2023-03-14T06:20:06;8.80;99.90
4727;DHT22;2377;51.734;8.950;2023-03-14T06:22:34;8.80;99.90
4727;DHT22;2377;51.734;8.950;2023-03-14T06:25:03;8.90;99.90
4727;DHT22;2377;51.734;8.950;2023-03-14T06:27:30;8.90;99.90
4727;DHT22;2377;51.734;8.950;2023-03-14T06:29:58;9.00;99.90
4727;DHT22;2377;51.734;8.950;2023-03-14T06:32:25;9.00;99.90
4727;DHT22;2377;51.734;8.950;2023-03-14T06:34:57;9.00;99.90
4727;DHT22;2377;51.734;8.950;2023-03-14T06:37:26;9.00;99.90
4727;DHT22;2377;51.734;8.950;2023-03-14T06:39:54;9.00;99.90
4727;DHT22;2377;51.734;8.950;2023-03-14T06:42:22;9.10;99.90
4727;DHT22;2377;51.734;8.950;2023-03-14T06:44:50;9.10;99.90
4727;DHT22;2377;51.734;8.950;2023-03-14T06:47:17;9.10;99.90
4727;DHT22;2377;51.734;8.950;2023-03-14T06:49:44;9.10;99.90
4727;DHT22;2377;51.734;8.950;2023-03-14T06:52:11;9.10;99.90
4727;DHT22;2377;51.734;8.950;2023-03-14T06:54:38;9.10;99.90
4727;DHT22;2377;51.734;8.950;2023-03-14T06:57:05;9.20;99.90
4727;DHT22;2377;51.734;8.950;2023-03-14T06:59:37;9.20;99.90
4727;DHT22;2377;51.734;8.950;2023-03-14T07:02:04;9.10;99.90
4727;DHT22;2377;51.734;8.950;2023-03-14T07:04:31;9.20;99.90
4727;DHT22;2377;51.734;8.950;2023-03-14T07:06:58;9.20;99.90
4727;DHT22;2377;51.734;8.950;2023-03-14T07:09:25;9.30;99.90
4727;DHT22;2377;51.734;8.950;2023-03-14T07:11:52;9.30;99.90
4727;DHT22;2377;51.734;8.950;2023-03-14T07:14:19;9.40;99.90
4727;DHT22;2377;51.734;8.950;2023-03-14T07:16:47;9.40;99.90
4727;DHT22;2377;51.734;8.950;2023-03-14T07:19:14;9.40;99.90
4727;DHT22;2377;51.734;8.950;2023-03-14T07:21:41;9.40;93.60
4727;DHT22;2377;51.734;8.950;2023-03-14T07:24:08;9.40;75.80
4727;DHT22;2377;51.734;8.950;2023-03-14T07:26:36;9.50;68.40
4727;DHT22;2377;51.734;8.950;2023-03-14T07:29:03;9.40;73.20
4727;DHT22;2377;51.734;8.950;2023-03-14T07:31:30;9.50;87.80
4727;DHT22;2377;51.734;8.950;2023-03-14T07:33:59;9.50;86.80
4727;DHT22;2377;51.734;8.950;2023-03-14T07:36:26;9.50;80.70
4727;DHT22;2377;51.734;8.950;2023-03-14T07:38:53;9.50;79.90
4727;DHT22;2377;51.734;8.950;2023-03-14T07:41:21;9.50;79.50
4727;DHT22;2377;51.734;8.950;2023-03-14T07:43:49;9.50;73.50
4727;DHT22;2377;51.734;8.950;2023-03-14T07:46:16;9.50;79.70
4727;DHT22;2377;51.734;8.950;2023-03-14T07:48:44;9.60;66.50
4727;DHT22;2377;51.734;8.950;2023-03-14T07:51:12;9.60;79.20
4727;DHT22;2377;51.734;8.950;2023-03-14T07:53:39;9.60;72.10
4727;DHT22;2377;51.734;8.950;2023-03-14T07:56:08;9.60;72.40
4727;DHT22;2377;51.734;8.950;2023-03-14T07:58:36;9.50;67.10
4727;DHT22;2377;51.734;8.950;2023-03-14T08:01:03;9.60;65.80
4727;DHT22;2377;51.734;8.950;2023-03-14T08:03:30;9.60;69.20
4727;DHT22;2377;51.734;8.950;2023-03-14T08:05:57;9.60;81.70
4727;DHT22;2377;51.734;8.950;2023-03-14T08:08:26;9.60;69.60
4727;DHT22;2377;51.734;8.950;2023-03-14T08:10:53;9.60;53.80
4727;DHT22;2377;51.734;8.950;2023-03-14T08:13:20;9.70;56.30
4727;DHT22;2377;51.734;8.950;2023-03-14T08:15:49;9.70;61.70
4727;DHT22;2377;51.734;8.950;2023-03-14T08:18:16;9.80;88.20
4727;DHT22;2377;51.734;8.950;2023-03-14T08:20:43;9.70;98.90
4727;DHT22;2377;51.734;8.950;2023-03-14T08:23:10;9.80;95.30
4727;DHT22;2377;51.734;8.950;2023-03-14T08:25:39;9.80;88.10
4727;DHT22;2377;51.734;8.950;2023-03-14T08:28:07;9.80;97.50
4727;DHT22;2377;51.734;8.950;2023-03-14T08:30:34;9.80;80.20
4727;DHT22;2377;51.734;8.950;2023-03-14T08:33:01;9.80;97.80
4727;DHT22;2377;51.734;8.950;2023-03-14T08:35:28;9.80;99.90
4727;DHT22;2377;51.734;8.950;2023-03-14T08:37:56;9.80;99.90
4727;DHT22;2377;51.734;8.950;2023-03-14T08:40:23;9.80;99.90
4727;DHT22;2377;51.734;8.950;2023-03-14T08:42:51;9.80;99.90
4727;DHT22;2377;51.734;8.950;2023-03-14T08:45:18;9.80;99.90
4727;DHT22;2377;51.734;8.950;2023-03-14T08:47:46;9.80;99.90
4727;DHT22;2377;51.734;8.950;2023-03-14T08:50:13;9.80;99.90
4727;DHT22;2377;51.734;8.950;2023-03-14T08:52:40;9.90;99.90
4727;DHT22;2377;51.734;8.950;2023-03-14T08:55:08;9.90;88.20
4727;DHT22;2377;51.734;8.950;2023-03-14T08:57:36;9.90;79.60
4727;DHT22;2377;51.734;8.950;2023-03-14T09:00:06;9.80;97.70
4727;DHT22;2377;51.734;8.950;2023-03-14T09:02:37;9.90;92.30
4727;DHT22;2377;51.734;8.950;2023-03-14T09:05:05;9.90;87.00
4727;DHT22;2377;51.734;8.950;2023-03-14T09:07:33;10.00;89.90
4727;DHT22;2377;51.734;8.950;2023-03-14T09:10:00;10.00;88.20
4727;DHT22;2377;51.734;8.950;2023-03-14T09:12:27;9.90;92.70
4727;DHT22;2377;51.734;8.950;2023-03-14T09:14:54;10.00;90.00
4727;DHT22;2377;51.734;8.950;2023-03-14T09:17:22;10.00;85.90
4727;DHT22;2377;51.734;8.950;2023-03-14T09:19:50;10.00;99.90
4727;DHT22;2377;51.734;8.950;2023-03-14T09:22:17;9.90;99.90
4727;DHT22;2377;51.734;8.950;2023-03-14T09:24:44;10.00;99.80
4727;DHT22;2377;51.734;8.950;2023-03-14T09:27:11;10.00;99.90
4727;DHT22;2377;51.734;8.950;2023-03-14T09:29:38;10.00;93.00
4727;DHT22;2377;51.734;8.950;2023-03-14T09:32:05;10.00;97.60
4727;DHT22;2377;51.734;8.950;2023-03-14T09:34:34;10.00;92.60
4727;DHT22;2377;51.734;8.950;2023-03-14T09:37:01;10.10;91.40
4727;DHT22;2377;51.734;8.950;2023-03-14T09:39:28;10.10;99.90
4727;DHT22;2377;51.734;8.950;2023-03-14T09:41:56;10.10;74.50
4727;DHT22;2377;51.734;8.950;2023-03-14T09:44:32;10.10;84.80
4727;DHT22;2377;51.734;8.950;2023-03-14T09:47:05;10.10;83.20
4727;DHT22;2377;51.734;8.950;2023-03-14T09:49:39;10.10;76.90
4727;DHT22;2377;51.734;8.950;2023-03-14T09:52:12;10.10;69.60
4727;DHT22;2377;51.734;8.950;2023-03-14T09:54:44;10.10;74.00
4727;DHT22;2377;51.734;8.950;2023-03-14T09:57:16;10.10;99.90
4727;DHT22;2377;51.734;8.950;2023-03-14T09:59:46;10.10;81.60
4727;DHT22;2377;51.734;8.950;2023-03-14T10:02:19;10.20;64.40
4727;DHT22;2377;51.734;8.950;2023-03-14T10:04:56;10.30;85.10
4727;DHT22;2377;51.734;8.950;2023-03-14T10:07:28;10.30;85.60
4727;DHT22;2377;51.734;8.950;2023-03-14T10:09:57;10.30;81.10
4727;DHT22;2377;51.734;8.950;2023-03-14T10:12:31;10.50;82.10
4727;DHT22;2377;51.734;8.950;2023-03-14T10:15:04;10.50;56.60
4727;DHT22;2377;51.734;8.950;2023-03-14T10:17:39;10.50;52.30
4727;DHT22;2377;51.734;8.950;2023-03-14T10:20:27;10.50;50.60
4727;DHT22;2377;51.734;8.950;2023-03-14T10:22:59;10.50;19.60
4727;DHT22;2377;51.734;8.950;2023-03-14T10:25:28;10.60;34.80
4727;DHT22;2377;51.734;8.950;2023-03-14T10:27:57;10.60;49.40
4727;DHT22;2377;51.734;8.950;2023-03-14T10:30:33;10.60;37.60
4727;DHT22;2377;51.734;8.950;2023-03-14T10:33:11;10.70;81.20
4727;DHT22;2377;51.734;8.950;2023-03-14T10:35:52;10.60;96.90
4727;DHT22;2377;51.734;8.950;2023-03-14T10:38:23;10.60;99.90
4727;DHT22;2377;51.734;8.950;2023-03-14T10:40:54;10.50;99.90
4727;DHT22;2377;51.734;8.950;2023-03-14T10:43:24;10.50;99.90
4727;DHT22;2377;51.734;8.950;2023-03-14T10:45:55;10.50;99.90
4727;DHT22;2377;51.734;8.950;2023-03-14T10:48:30;10.50;99.90
4727;DHT22;2377;51.734;8.950;2023-03-14T10:51:04;10.50;99.90
4727;DHT22;2377;51.734;8.950;2023-03-14T10:53:39;10.40;99.90
4727;DHT22;2377;51.734;8.950;2023-03-14T10:56:12;10.40;99.90
4727;DHT22;2377;51.734;8.950;2023-03-14T10:58:41;10.30;99.90
4727;DHT22;2377;51.734;8.950;2023-03-14T11:01:30;10.30;99.90
4727;DHT22;2377;51.734;8.950;2023-03-14T11:04:14;10.30;99.90
4727;DHT22;2377;51.734;8.950;2023-03-14T11:06:55;10.20;99.90
4727;DHT22;2377;51.734;8.950;2023-03-14T11:09:34;10.10;99.90
4727;DHT22;2377;51.734;8.950;2023-03-14T11:12:23;10.10;99.90
4727;DHT22;2377;51.734;8.950;2023-03-14T11:15:07;10.10;99.90
4727;DHT22;2377;51.734;8.950;2023-03-14T11:17:46;10.00;99.90
4727;DHT22;2377;51.734;8.950;2023-03-14T11:20:32;9.80;99.90
4727;DHT22;2377;51.734;8.950;2023-03-14T11:23:10;9.50;99.90
4727;DHT22;2377;51.734;8.950;2023-03-14T11:25:47;9.30;99.90
4727;DHT22;2377;51.734;8.950;2023-03-14T11:28:28;9.30;99.90
4727;DHT22;2377;51.734;8.950;2023-03-14T11:31:06;9.30;99.90
4727;DHT22;2377;51.734;8.950;2023-03-14T11:33:47;9.10;99.90
4727;DHT22;2377;51.734;8.950;2023-03-14T11:36:26;9.00;99.90
4727;DHT22;2377;51.734;8.950;2023-03-14T11:38:58;9.00;99.90
4727;DHT22;2377;51.734;8.950;2023-03-14T11:41:30;8.80;99.90
4727;DHT22;2377;51.734;8.950;2023-03-14T11:44:04;8.70;99.90
4727;DHT22;2377;51.734;8.950;2023-03-14T11:46:48;8.70;99.90
4727;DHT22;2377;51.734;8.950;2023-03-14T11:49:27;8.70;99.90
4727;DHT22;2377;51.734;8.950;2023-03-14T11:52:08;8.60;99.90
4727;DHT22;2377;51.734;8.950;2023-03-14T11:54:44;8.60;99.90
4727;DHT22;2377;51.734;8.950;2023-03-14T11:57:17;8.50;99.90
4727;DHT22;2377;51.734;8.950;2023-03-14T11:59:51;8.50;99.90
4727;DHT22;2377;51.734;8.950;2023-03-14T12:02:27;8.30;99.90
4727;DHT22;2377;51.734;8.950;2023-03-14T12:05:42;8.30;99.90
4727;DHT22;2377;51.734;8.950;2023-03-14T12:08:29;8.30;99.90
4727;DHT22;2377;51.734;8.950;2023-03-14T12:14:00;8.10;18.90
4727;DHT22;2377;51.734;8.950;2023-03-14T12:16:34;7.80;40.40
4727;DHT22;2377;51.734;8.950;2023-03-14T12:19:37;7.20;59.50
4727;DHT22;2377;51.734;8.950;2023-03-14T12:22:17;6.60;66.30
4727;DHT22;2377;51.734;8.950;2023-03-14T12:24:55;6.30;99.90
4727;DHT22;2377;51.734;8.950;2023-03-14T12:27:49;6.10;99.90
4727;DHT22;2377;51.734;8.950;2023-03-14T12:30:33;6.20;99.90
4727;DHT22;2377;51.734;8.950;2023-03-14T12:33:32;6.10;99.90
4727;DHT22;2377;51.734;8.950;2023-03-14T12:36:20;6.00;62.00
4727;DHT22;2377;51.734;8.950;2023-03-14T12:39:31;5.70;80.90
4727;DHT22;2377;51.734;8.950;2023-03-14T12:42:07;5.60;97.80
4727;DHT22;2377;51.734;8.950;2023-03-14T12:44:56;5.30;99.90
4727;DHT22;2377;51.734;8.950;2023-03-14T12:48:07;5.10;99.90
4727;DHT22;2377;51.734;8.950;2023-03-14T12:50:43;5.30;99.90
4727;DHT22;2377;51.734;8.950;2023-03-14T12:53:39;5.10;99.90
4727;DHT22;2377;51.734;8.950;2023-03-14T12:56:32;5.10;99.90
4727;DHT22;2377;51.734;8.950;2023-03-14T13:02:28;5.10;99.90
4727;DHT22;2377;51.734;8.950;2023-03-14T13:05:10;5.00;75.40
4727;DHT22;2377;51.734;8.950;2023-03-14T13:08:04;5.00;93.50
4727;DHT22;2377;51.734;8.950;2023-03-14T13:10:40;5.00;88.00
4727;DHT22;2377;51.734;8.950;2023-03-14T13:13:17;5.10;62.90
4727;DHT22;2377;51.734;8.950;2023-03-14T13:15:48;5.10;87.30
4727;DHT22;2377;51.734;8.950;2023-03-14T13:18:23;5.00;85.70
4727;DHT22;2377;51.734;8.950;2023-03-14T13:20:59;5.10;89.80
4727;DHT22;2377;51.734;8.950;2023-03-14T13:23:32;5.10;99.90
4727;DHT22;2377;51.734;8.950;2023-03-14T13:26:01;5.30;61.70
4727;DHT22;2377;51.734;8.950;2023-03-14T13:28:29;5.30;56.30
4727;DHT22;2377;51.734;8.950;2023-03-14T13:30:59;5.30;60.80
4727;DHT22;2377;51.734;8.950;2023-03-14T13:33:29;5.30;39.50
4727;DHT22;2377;51.734;8.950;2023-03-14T13:35:58;5.40;59.50
4727;DHT22;2377;51.734;8.950;2023-03-14T13:38:29;5.50;65.00
4727;DHT22;2377;51.734;8.950;2023-03-14T13:40:59;5.60;64.80
4727;DHT22;2377;51.734;8.950;2023-03-14T13:43:31;5.60;62.90
4727;DHT22;2377;51.734;8.950;2023-03-14T13:46:04;5.60;71.50
4727;DHT22;2377;51.734;8.950;2023-03-14T13:48:39;5.60;68.10
4727;DHT22;2377;51.734;8.950;2023-03-14T13:51:12;5.70;86.40
4727;DHT22;2377;51.734;8.950;2023-03-14T13:53:44;5.80;82.20
4727;DHT22;2377;51.734;8.950;2023-03-14T13:56:13;5.80;53.20
4727;DHT22;2377;51.734;8.950;2023-03-14T13:58:40;5.80;36.20
4727;DHT22;2377;51.734;8.950;2023-03-14T14:01:13;5.70;62.40
4727;DHT22;2377;51.734;8.950;2023-03-14T14:03:46;5.70;97.70
4727;DHT22;2377;51.734;8.950;2023-03-14T14:06:27;5.80;68.80
4727;DHT22;2377;51.734;8.950;2023-03-14T14:08:59;5.80;72.10
4727;DHT22;2377;51.734;8.950;2023-03-14T14:11:38;5.80;49.50
4727;DHT22;2377;51.734;8.950;2023-03-14T14:14:12;5.60;91.30
4727;DHT22;2377;51.734;8.950;2023-03-14T14:16:46;5.70;83.20
4727;DHT22;2377;51.734;8.950;2023-03-14T14:19:18;5.60;22.10
4727;DHT22;2377;51.734;8.950;2023-03-14T14:21:48;5.40;25.90
4727;DHT22;2377;51.734;8.950;2023-03-14T14:24:16;5.00;64.10
4727;DHT22;2377;51.734;8.950;2023-03-14T14:26:47;4.80;91.90
4727;DHT22;2377;51.734;8.950;2023-03-14T14:29:26;4.70;99.90
4727;DHT22;2377;51.734;8.950;2023-03-14T14:32:01;4.80;59.90
4727;DHT22;2377;51.734;8.950;2023-03-14T14:34:38;4.80;81.90
4727;DHT22;2377;51.734;8.950;2023-03-14T14:37:20;4.80;54.20
4727;DHT22;2377;51.734;8.950;2023-03-14T14:39:51;4.70;64.10
4727;DHT22;2377;51.734;8.950;2023-03-14T14:42:21;4.80;38.60
4727;DHT22;2377;51.734;8.950;2023-03-14T14:44:53;4.70;88.30
4727;DHT22;2377;51.734;8.950;2023-03-14T14:47:22;4.80;99.90
4727;DHT22;2377;51.734;8.950;2023-03-14T14:49:54;4.90;99.90
4727;DHT22;2377;51.734;8.950;2023-03-14T14:52:34;5.00;99.90
4727;DHT22;2377;51.734;8.950;2023-03-14T14:55:12;5.10;99.90
4727;DHT22;2377;51.734;8.950;2023-03-14T14:57:51;5.20;98.20
4727;DHT22;2377;51.734;8.950;2023-03-14T15:00:21;5.30;99.10
4727;DHT22;2377;51.734;8.950;2023-03-14T15:02:50;5.30;88.80
4727;DHT22;2377;51.734;8.950;2023-03-14T15:05:22;5.40;87.20
4727;DHT22;2377;51.734;8.950;2023-03-14T15:07:51;5.50;99.90
4727;DHT22;2377;51.734;8.950;2023-03-14T15:10:20;5.50;88.10
4727;DHT22;2377;51.734;8.950;2023-03-14T15:12:49;5.50;86.40
4727;DHT22;2377;51.734;8.950;2023-03-14T15:15:17;5.50;79.70
4727;DHT22;2377;51.734;8.950;2023-03-14T15:17:44;5.60;99.90
4727;DHT22;2377;51.734;8.950;2023-03-14T15:20:14;5.60;99.90
4727;DHT22;2377;51.734;8.950;2023-03-14T15:22:45;5.70;88.10
4727;DHT22;2377;51.734;8.950;2023-03-14T15:25:12;5.70;67.60
4727;DHT22;2377;51.734;8.950;2023-03-14T15:27:40;5.80;81.30
4727;DHT22;2377;51.734;8.950;2023-03-14T15:30:10;5.80;39.70
4727;DHT22;2377;51.734;8.950;2023-03-14T15:32:39;5.80;26.70
4727;DHT22;2377;51.734;8.950;2023-03-14T15:35:08;5.70;20.10
4727;DHT22;2377;51.734;8.950;2023-03-14T15:37:35;5.60;13.80
4727;DHT22;2377;51.734;8.950;2023-03-14T15:40:05;5.60;6.80
4727;DHT22;2377;51.734;8.950;2023-03-14T15:42:39;5.60;13.50
4727;DHT22;2377;51.734;8.950;2023-03-14T15:45:07;5.60;2.70
4727;DHT22;2377;51.734;8.950;2023-03-14T15:47:35;5.60;1.00
4727;DHT22;2377;51.734;8.950;2023-03-14T15:50:02;5.60;1.00
4727;DHT22;2377;51.734;8.950;2023-03-14T15:52:29;5.60;1.00
4727;DHT22;2377;51.734;8.950;2023-03-14T15:54:57;5.60;1.00
4727;DHT22;2377;51.734;8.950;2023-03-14T15:57:25;5.60;1.00
4727;DHT22;2377;51.734;8.950;2023-03-14T15:59:52;5.60;1.00
4727;DHT22;2377;51.734;8.950;2023-03-14T16:02:19;5.60;1.00
4727;DHT22;2377;51.734;8.950;2023-03-14T16:04:47;5.50;1.00
4727;DHT22;2377;51.734;8.950;2023-03-14T16:07:14;5.50;1.00
4727;DHT22;2377;51.734;8.950;2023-03-14T16:09:41;5.50;1.00
4727;DHT22;2377;51.734;8.950;2023-03-14T16:12:08;5.60;1.00
4727;DHT22;2377;51.734;8.950;2023-03-14T16:14:37;5.60;1.00
4727;DHT22;2377;51.734;8.950;2023-03-14T16:17:08;5.60;1.00
4727;DHT22;2377;51.734;8.950;2023-03-14T16:19:37;5.60;1.00
4727;DHT22;2377;51.734;8.950;2023-03-14T16:22:04;5.60;1.00
4727;DHT22;2377;51.734;8.950;2023-03-14T16:24:31;5.60;1.00
4727;DHT22;2377;51.734;8.950;2023-03-14T16:26:58;5.60;1.00
4727;DHT22;2377;51.734;8.950;2023-03-14T16:29:25;5.50;1.00
4727;DHT22;2377;51.734;8.950;2023-03-14T16:31:54;5.50;1.00
4727;DHT22;2377;51.734;8.950;2023-03-14T16:34:21;5.50;1.00
4727;DHT22;2377;51.734;8.950;2023-03-14T16:36:48;5.50;1.00
4727;DHT22;2377;51.734;8.950;2023-03-14T16:39:16;5.40;1.00
4727;DHT22;2377;51.734;8.950;2023-03-14T16:41:44;5.30;1.00
4727;DHT22;2377;51.734;8.950;2023-03-14T16:44:11;5.30;1.00
4727;DHT22;2377;51.734;8.950;2023-03-14T16:46:38;5.30;1.00
4727;DHT22;2377;51.734;8.950;2023-03-14T16:49:07;5.30;1.00